createdAt,value
2019-03-17T00:01:57.141Z,95027.73
2019-03-17T00:04:12.202Z,95027.23
2019-03-17T00:06:38.204Z,95029.98
2019-03-17T00:09:04.204Z,95026.94
2019-03-17T00:11:30.225Z,95029.19
2019-03-17T00:13:56.221Z,95027.44
2019-03-17T00:16:22.224Z,95023.95
2019-03-17T00:18:48.228Z,95026.20
2019-03-17T00:21:14.220Z,95025.70
2019-03-17T00:23:40.219Z,95019.53
2019-03-17T00:26:06.272Z,95027.53
2019-03-17T00:28:32.289Z,95028.47
2019-03-17T00:30:58.291Z,95029.27
2019-03-17T00:33:24.309Z,95025.40
2019-03-17T00:35:50.309Z,95033.80
2019-03-17T00:38:16.424Z,95029.81
2019-03-17T00:40:42.423Z,95029.48
2019-03-17T00:43:08.427Z,95015.75
2019-03-17T00:45:34.424Z,95020.07
2019-03-17T00:48:00.424Z,95019.74
2019-03-17T00:50:26.418Z,95023.02
2019-03-17T00:52:52.421Z,95022.41
2019-03-17T00:55:18.444Z,95017.61
2019-03-17T00:57:44.439Z,95012.78
2019-03-17T01:00:10.440Z,95006.13
2019-03-17T01:02:36.448Z,95007.46
2019-03-17T01:05:02.452Z,95011.87
2019-03-17T01:07:28.458Z,95015.03
2019-03-17T01:09:54.457Z,95019.03
2019-03-17T01:12:20.488Z,95019.03
2019-03-17T01:14:46.483Z,95023.02
2019-03-17T01:17:12.474Z,95016.78
2019-03-17T01:19:38.474Z,95019.64
2019-03-17T01:22:04.469Z,95023.44
2019-03-17T01:24:30.475Z,95024.35
2019-03-17T01:26:56.467Z,95018.23
2019-03-17T01:29:22.492Z,95027.55
2019-03-17T01:31:48.485Z,95030.51
2019-03-17T01:34:14.484Z,95026.22
2019-03-17T01:36:40.487Z,95025.80
2019-03-17T01:39:06.484Z,95026.42
2019-03-17T01:41:32.494Z,95037.78
2019-03-17T01:43:58.496Z,95034.80
2019-03-17T01:46:24.531Z,95036.66
2019-03-17T01:48:50.539Z,95039.73
2019-03-17T01:51:16.541Z,95032.25
2019-03-17T01:53:42.540Z,95031.63
2019-03-17T01:56:08.535Z,95038.48
2019-03-17T01:58:34.536Z,95039.32
2019-03-17T02:01:00.534Z,95037.98
2019-03-17T02:03:26.530Z,95031.00
2019-03-17T02:05:52.522Z,95033.99
2019-03-17T02:08:18.560Z,95040.33
2019-03-17T02:10:44.557Z,95033.67
2019-03-17T02:13:10.551Z,95036.33
2019-03-17T02:15:36.551Z,95030.50
2019-03-17T02:18:02.555Z,95025.59
2019-03-17T02:20:28.559Z,95028.25
2019-03-17T02:22:54.554Z,95029.59
2019-03-17T02:25:20.556Z,95038.99
2019-03-17T02:27:46.553Z,95045.27
2019-03-17T02:30:12.572Z,95047.39
2019-03-17T02:32:38.575Z,95046.59
2019-03-17T02:35:04.559Z,95043.94
2019-03-17T02:37:30.569Z,95045.27
2019-03-17T02:39:56.570Z,95048.02
2019-03-17T02:42:22.572Z,95051.51
2019-03-17T02:44:48.566Z,95061.83
2019-03-17T02:47:14.575Z,95066.66
2019-03-17T02:49:40.568Z,95073.81
2019-03-17T02:52:06.639Z,95076.89
2019-03-17T02:54:32.640Z,95080.80
2019-03-17T02:56:58.670Z,95082.63
2019-03-17T02:59:24.670Z,95083.05
2019-03-17T03:01:50.668Z,95086.74
2019-03-17T03:04:16.689Z,95092.06
2019-03-17T03:06:42.707Z,95094.31
2019-03-17T03:09:08.686Z,95100.36
2019-03-17T03:11:34.686Z,95103.22
2019-03-17T03:14:00.684Z,95104.97
2019-03-17T03:16:26.684Z,95105.38
2019-03-17T03:18:52.690Z,95113.88
2019-03-17T03:21:18.694Z,95116.53
2019-03-17T03:23:44.685Z,95113.04
2019-03-17T03:26:10.676Z,95109.88
2019-03-17T03:28:36.732Z,95109.05
2019-03-17T03:31:02.727Z,95113.45
2019-03-17T03:33:28.728Z,95113.45
2019-03-17T03:36:09.448Z,95116.53
2019-03-17T03:38:20.741Z,95107.30
2019-03-17T03:40:46.744Z,95105.97
2019-03-17T03:43:12.746Z,95099.73
2019-03-17T03:45:38.744Z,95107.71
2019-03-17T03:48:04.742Z,95107.09
2019-03-17T03:50:30.747Z,95093.78
2019-03-17T03:52:56.742Z,95109.38
2019-03-17T03:55:22.764Z,95107.63
2019-03-17T03:57:48.757Z,95107.09
2019-03-17T04:00:14.761Z,95104.55
2019-03-17T04:02:40.760Z,95110.70
2019-03-17T04:05:06.814Z,95110.17
2019-03-17T04:07:32.813Z,95115.20
2019-03-17T04:09:58.816Z,95115.62
2019-03-17T04:12:24.821Z,95109.76
2019-03-17T04:14:50.817Z,95114.17
2019-03-17T04:17:16.841Z,95115.83
2019-03-17T04:19:42.841Z,95120.83
2019-03-17T04:22:08.837Z,95117.36
2019-03-17T04:24:34.845Z,95123.49
2019-03-17T04:27:00.837Z,95119.00
2019-03-17T04:29:26.835Z,95122.69
2019-03-17T04:31:52.838Z,95124.32
2019-03-17T04:34:18.845Z,95128.31
2019-03-17T04:36:44.839Z,95131.89
2019-03-17T04:39:10.864Z,95133.23
2019-03-17T04:41:36.901Z,95144.17
2019-03-17T04:44:02.902Z,95136.30
2019-03-17T04:46:28.909Z,95140.72
2019-03-17T04:48:54.931Z,95143.67
2019-03-17T04:51:20.904Z,95143.46
2019-03-17T04:53:46.900Z,95149.92
2019-03-17T04:56:12.918Z,95146.95
2019-03-17T04:58:38.959Z,95153.83
2019-03-17T05:01:04.905Z,95156.91
2019-03-17T05:03:30.903Z,95156.58
2019-03-17T05:05:56.898Z,95159.77
2019-03-17T05:08:22.972Z,95164.06
2019-03-17T05:10:48.898Z,95171.14
2019-03-17T05:13:14.922Z,95173.89
2019-03-17T05:15:40.978Z,95172.05
2019-03-17T05:18:06.990Z,95171.64
2019-03-17T05:20:32.990Z,95177.38
2019-03-17T05:22:59.015Z,95176.88
2019-03-17T05:25:24.990Z,95187.72
2019-03-17T05:27:50.986Z,95172.88
2019-03-17T05:30:16.993Z,95183.33
2019-03-17T05:32:42.996Z,95181.30
2019-03-17T05:35:09.023Z,95179.66
2019-03-17T05:37:35.024Z,95187.95
2019-03-17T05:40:01.020Z,95185.41
2019-03-17T05:42:27.072Z,95177.72
2019-03-17T05:44:53.013Z,95183.34
2019-03-17T05:47:19.022Z,95184.16
2019-03-17T05:49:45.118Z,95193.48
2019-03-17T05:52:11.120Z,95190.52
2019-03-17T05:54:37.114Z,95193.98
2019-03-17T05:57:03.135Z,95201.39
2019-03-17T05:59:29.136Z,95193.89
2019-03-17T06:01:55.131Z,95191.64
2019-03-17T06:04:21.130Z,95202.72
2019-03-17T06:06:47.128Z,95204.13
2019-03-17T06:09:13.127Z,95201.59
2019-03-17T06:11:39.117Z,95203.30
2019-03-17T06:14:05.115Z,95204.97
2019-03-17T06:16:31.116Z,95211.70
2019-03-17T06:18:57.112Z,95208.43
2019-03-17T06:21:23.121Z,95207.21
2019-03-17T06:23:49.112Z,95207.31
2019-03-17T06:26:15.137Z,95202.52
2019-03-17T06:28:41.137Z,95200.23
2019-03-17T06:31:07.174Z,95195.86
2019-03-17T06:33:33.181Z,95202.10
2019-03-17T06:35:59.180Z,95203.10
2019-03-17T06:38:25.184Z,95210.51
2019-03-17T06:40:51.180Z,95214.59
2019-03-17T06:43:17.181Z,95214.61
2019-03-17T06:45:43.179Z,95209.30
2019-03-17T06:48:09.204Z,95208.46
2019-03-17T06:50:35.192Z,95213.58
2019-03-17T06:53:01.247Z,95215.11
2019-03-17T06:55:27.224Z,95217.38
2019-03-17T06:57:53.239Z,95220.98
2019-03-17T07:00:19.224Z,95218.32
2019-03-17T07:02:45.217Z,95221.37
2019-03-17T07:05:11.282Z,95220.78
2019-03-17T07:07:44.030Z,95227.11
2019-03-17T07:10:03.265Z,95218.12
2019-03-17T07:12:29.273Z,95216.88
2019-03-17T07:14:55.275Z,95217.78
2019-03-17T07:17:21.284Z,95213.91
2019-03-17T07:19:47.282Z,95212.05
2019-03-17T07:22:13.278Z,95216.57
2019-03-17T07:24:39.276Z,95216.77
2019-03-17T07:27:05.302Z,95213.81
2019-03-17T07:29:31.302Z,95216.69
2019-03-17T07:31:57.288Z,95216.27
2019-03-17T07:34:23.286Z,95214.95
2019-03-17T07:36:49.284Z,95219.78
2019-03-17T07:39:15.316Z,95216.30
2019-03-17T07:41:41.280Z,95215.37
2019-03-17T07:44:07.354Z,95216.48
2019-03-17T07:46:33.359Z,95214.33
2019-03-17T07:48:59.369Z,95214.44
2019-03-17T07:51:25.355Z,95213.83
2019-03-17T07:53:51.375Z,95210.66
2019-03-17T07:56:17.374Z,95208.30
2019-03-17T07:58:43.369Z,95215.77
2019-03-17T08:01:09.386Z,95209.73
2019-03-17T08:03:35.371Z,95208.52
2019-03-17T08:06:01.508Z,95215.59
2019-03-17T08:08:27.535Z,95209.84
2019-03-17T08:10:53.868Z,95207.70
2019-03-17T08:13:19.883Z,95210.86
2019-03-17T08:15:45.987Z,95201.32
2019-03-17T08:18:11.997Z,95210.86
2019-03-17T08:20:37.990Z,95211.48
2019-03-17T08:23:04.063Z,95207.48
2019-03-17T08:25:30.058Z,95201.66
2019-03-17T08:27:56.056Z,95203.92
2019-03-17T08:30:22.134Z,95198.39
2019-03-17T08:32:48.145Z,95196.94
2019-03-17T08:35:14.132Z,95197.16
2019-03-17T08:37:40.153Z,95194.69
2019-03-17T08:40:06.157Z,95197.36
2019-03-17T08:42:32.151Z,95190.49
2019-03-17T08:44:58.157Z,95190.49
2019-03-17T08:47:24.149Z,95186.50
2019-03-17T08:49:50.177Z,95187.53
2019-03-17T08:52:16.176Z,95185.16
2019-03-17T08:54:42.203Z,95180.05
2019-03-17T08:57:08.197Z,95179.44
2019-03-17T08:59:34.202Z,95176.69
2019-03-17T09:02:00.252Z,95176.98
2019-03-17T09:04:26.250Z,95175.36
2019-03-17T09:06:52.256Z,95171.66
2019-03-17T09:09:18.252Z,95171.45
2019-03-17T09:11:44.266Z,95166.63
2019-03-17T09:14:10.273Z,95160.09
2019-03-17T09:16:36.276Z,95163.17
2019-03-17T09:19:02.337Z,95161.84
2019-03-17T09:21:28.303Z,95160.80
2019-03-17T09:23:54.305Z,95161.94
2019-03-17T09:26:20.296Z,95159.89
2019-03-17T09:28:46.320Z,95145.51
2019-03-17T09:31:12.320Z,95157.02
2019-03-17T09:33:38.322Z,95153.23
2019-03-17T09:36:04.315Z,95144.42
2019-03-17T09:38:30.318Z,95151.68
2019-03-17T09:40:56.318Z,95144.97
2019-03-17T09:43:22.340Z,95139.81
2019-03-17T09:45:48.336Z,95138.41
2019-03-17T09:48:14.330Z,95131.54
2019-03-17T09:50:40.333Z,95127.54
2019-03-17T09:53:06.327Z,95128.07
2019-03-17T09:55:32.330Z,95124.79
2019-03-17T09:57:58.328Z,95121.50
2019-03-17T10:00:24.370Z,95122.53
2019-03-17T10:02:50.370Z,95126.62
2019-03-17T10:05:16.358Z,95115.87
2019-03-17T10:07:42.362Z,95111.75
2019-03-17T10:10:08.359Z,95111.05
2019-03-17T10:12:34.371Z,95111.96
2019-03-17T10:15:00.466Z,95108.17
2019-03-17T10:17:26.356Z,95113.80
2019-03-17T10:19:52.357Z,95115.25
2019-03-17T10:22:18.399Z,95104.67
2019-03-17T10:24:44.401Z,95100.58
2019-03-17T10:27:10.518Z,95098.83
2019-03-17T10:29:36.516Z,95098.03
2019-03-17T10:32:02.512Z,95092.76
2019-03-17T10:34:28.573Z,95093.17
2019-03-17T10:36:54.587Z,95092.13
2019-03-17T10:39:20.612Z,95089.38
2019-03-17T10:41:46.616Z,95083.55
2019-03-17T10:44:12.618Z,95083.34
2019-03-17T10:46:38.619Z,95086.09
2019-03-17T10:49:04.625Z,95084.05
2019-03-17T10:51:30.637Z,95084.05
2019-03-17T10:53:56.631Z,95076.55
2019-03-17T10:56:22.636Z,95079.42
2019-03-17T10:58:48.640Z,95070.42
2019-03-17T11:01:14.639Z,95067.84
2019-03-17T11:03:40.644Z,95068.34
2019-03-17T11:06:06.649Z,95065.48
2019-03-17T11:08:32.646Z,95056.48
2019-03-17T11:10:58.649Z,95046.02
2019-03-17T11:13:24.644Z,95042.94
2019-03-17T11:15:50.719Z,95044.16
2019-03-17T11:18:16.711Z,95041.82
2019-03-17T11:20:42.706Z,95040.48
2019-03-17T11:23:08.707Z,95040.78
2019-03-17T11:25:34.727Z,95031.95
2019-03-17T11:28:00.723Z,95034.23
2019-03-17T11:30:26.727Z,95026.95
2019-03-17T11:32:52.762Z,95020.29
2019-03-17T11:35:18.745Z,95014.46
2019-03-17T11:37:44.751Z,95007.05
2019-03-17T11:40:10.741Z,94993.23
2019-03-17T11:42:36.790Z,95000.21
2019-03-17T11:45:02.800Z,94987.19
2019-03-17T11:47:28.795Z,94987.27
2019-03-17T11:49:54.796Z,94976.20
2019-03-17T11:52:20.790Z,94968.00
2019-03-17T11:54:46.791Z,94964.83
2019-03-17T11:57:12.789Z,94968.63
2019-03-17T11:59:38.818Z,94956.33
2019-03-17T12:02:04.815Z,94953.34
2019-03-17T12:04:30.813Z,94943.45
2019-03-17T12:06:56.820Z,94948.16
2019-03-17T12:09:29.095Z,94950.70
2019-03-17T12:11:48.822Z,94947.13
2019-03-17T12:14:14.813Z,94944.38
2019-03-17T12:16:40.823Z,94940.96
2019-03-17T12:19:06.823Z,94938.21
2019-03-17T12:21:32.867Z,94937.09
2019-03-17T12:23:58.863Z,94941.17
2019-03-17T12:26:24.887Z,94933.29
2019-03-17T12:28:50.885Z,94931.34
2019-03-17T12:31:16.885Z,94930.30
2019-03-17T12:33:42.898Z,94925.37
2019-03-17T12:36:08.892Z,94928.55
2019-03-17T12:38:34.914Z,94922.92
2019-03-17T12:41:00.911Z,94923.72
2019-03-17T12:43:26.932Z,94916.97
2019-03-17T12:45:52.926Z,94923.30
2019-03-17T12:48:18.918Z,94914.80
2019-03-17T12:50:44.919Z,94917.76
2019-03-17T12:53:10.920Z,94905.97
2019-03-17T12:55:36.945Z,94914.18
2019-03-17T12:58:02.927Z,94908.76
2019-03-17T13:00:28.936Z,94910.50
2019-03-17T13:02:54.946Z,94912.55
2019-03-17T13:05:20.920Z,94914.59
2019-03-17T13:07:46.922Z,94905.67
2019-03-17T13:10:16.046Z,94904.63
2019-03-17T13:12:38.924Z,94897.77
2019-03-17T13:15:04.928Z,94901.55
2019-03-17T13:17:30.931Z,94890.88
2019-03-17T13:19:56.936Z,94902.45
2019-03-17T13:22:22.966Z,94900.60
2019-03-17T13:24:48.966Z,94900.77
2019-03-17T13:27:15.008Z,94891.55
2019-03-17T13:29:41.016Z,94892.34
2019-03-17T13:32:07.012Z,94892.66
2019-03-17T13:34:33.010Z,94885.98
2019-03-17T13:36:59.011Z,94882.58
2019-03-17T13:39:25.012Z,94873.38
2019-03-17T13:41:58.087Z,94866.27
2019-03-17T13:44:24.095Z,94865.44
2019-03-17T13:46:50.213Z,94861.73
2019-03-17T13:49:16.327Z,94860.52
2019-03-17T13:51:42.340Z,94858.06
2019-03-17T13:54:08.446Z,94861.14
2019-03-17T13:56:34.463Z,94855.19
2019-03-17T13:59:00.475Z,94853.57
2019-03-17T14:01:26.505Z,94851.41
2019-03-17T14:03:54.925Z,94848.33
2019-03-17T14:06:18.887Z,94849.66
2019-03-17T14:08:45.899Z,94844.23
2019-03-17T14:11:11.939Z,94846.91
2019-03-17T14:13:37.967Z,94843.81
2019-03-17T14:16:04.092Z,94839.69
2019-03-17T14:18:30.105Z,94840.30
2019-03-17T14:20:56.119Z,94834.05
2019-03-17T14:23:22.172Z,94840.17
2019-03-17T14:25:48.182Z,94837.83
2019-03-17T14:28:14.229Z,94837.83
2019-03-17T14:30:40.238Z,94836.01
2019-03-17T14:33:06.275Z,94838.47
2019-03-17T14:35:32.295Z,94838.98
2019-03-17T14:37:58.418Z,94831.17
2019-03-17T14:40:24.437Z,94830.47
2019-03-17T14:42:50.439Z,94831.39
2019-03-17T14:45:16.506Z,94828.94
2019-03-17T14:47:42.479Z,94828.31
2019-03-17T14:50:08.502Z,94827.82
2019-03-17T14:52:34.515Z,94829.45
2019-03-17T14:55:00.549Z,94825.87
2019-03-17T14:57:26.543Z,94829.37
2019-03-17T14:59:52.561Z,94829.66
2019-03-17T15:02:19.597Z,94820.88
2019-03-17T15:04:44.620Z,94826.99
2019-03-17T15:07:10.675Z,94825.45
2019-03-17T15:09:36.692Z,94826.41
2019-03-17T15:12:02.707Z,94820.25
2019-03-17T15:14:28.722Z,94824.95
2019-03-17T15:16:54.737Z,94825.08
2019-03-17T15:19:20.757Z,94819.20
2019-03-17T15:21:46.766Z,94820.95
2019-03-17T15:24:12.801Z,94819.91
2019-03-17T15:26:38.801Z,94820.11
2019-03-17T15:29:04.841Z,94823.61
2019-03-17T15:31:30.896Z,94828.23
2019-03-17T15:33:56.911Z,94818.80
2019-03-17T15:36:22.977Z,94829.16
2019-03-17T15:38:48.990Z,94828.44
2019-03-17T15:41:18.831Z,94830.77
2019-03-17T15:43:41.030Z,94836.31
2019-03-17T15:46:07.051Z,94838.27
2019-03-17T15:48:33.059Z,94836.33
2019-03-17T15:50:59.122Z,94842.78
2019-03-17T15:53:25.141Z,94845.57
2019-03-17T15:55:51.159Z,94844.82
2019-03-17T15:58:17.233Z,94844.23
2019-03-17T16:00:43.246Z,94848.23
2019-03-17T16:03:09.272Z,94846.91
2019-03-17T16:05:35.420Z,94853.98
2019-03-17T16:08:01.442Z,94854.78
2019-03-17T16:10:27.583Z,94850.98
2019-03-17T16:12:53.689Z,94852.82
2019-03-17T16:15:19.703Z,94854.37
2019-03-17T16:17:45.855Z,94851.83
2019-03-17T16:20:12.117Z,94851.11
2019-03-17T16:22:38.133Z,94853.23
2019-03-17T16:25:04.145Z,94851.59
2019-03-17T16:27:30.214Z,94852.72
2019-03-17T16:29:56.403Z,94861.63
2019-03-17T16:32:22.515Z,94861.22
2019-03-17T16:34:48.652Z,94857.21
2019-03-17T16:37:14.764Z,94860.38
2019-03-17T16:39:40.822Z,94854.33
2019-03-17T16:42:06.842Z,94855.75
2019-03-17T16:44:32.869Z,94854.63
2019-03-17T16:46:58.919Z,94859.47
2019-03-17T16:49:24.998Z,94857.09
2019-03-17T16:51:51.019Z,94858.55
2019-03-17T16:54:17.106Z,94858.84
2019-03-17T16:56:43.078Z,94860.80
2019-03-17T16:59:09.101Z,94865.09
2019-03-17T17:01:35.109Z,94867.25
2019-03-17T17:04:01.127Z,94870.55
2019-03-17T17:06:27.160Z,94869.30
2019-03-17T17:08:53.181Z,94871.27
2019-03-17T17:11:19.298Z,94872.72
2019-03-17T17:13:45.316Z,94869.73
2019-03-17T17:16:11.340Z,94875.60
2019-03-17T17:18:37.364Z,94866.48
2019-03-17T17:21:03.411Z,94874.06
2019-03-17T17:23:29.420Z,94869.23
2019-03-17T17:25:55.429Z,94864.23
2019-03-17T17:28:21.451Z,94872.23
2019-03-17T17:30:47.467Z,94880.33
2019-03-17T17:33:13.492Z,94884.53
2019-03-17T17:35:39.501Z,94878.91
2019-03-17T17:38:05.561Z,94881.25
2019-03-17T17:40:31.615Z,94878.29
2019-03-17T17:42:57.591Z,94880.25
2019-03-17T17:45:23.615Z,94883.84
2019-03-17T17:47:49.642Z,94876.26
2019-03-17T17:50:15.662Z,94893.50
2019-03-17T17:52:41.695Z,94887.13
2019-03-17T17:55:07.724Z,94895.76
2019-03-17T17:57:33.785Z,94891.64
2019-03-17T17:59:59.860Z,94892.38
2019-03-17T18:02:25.886Z,94891.43
2019-03-17T18:04:51.947Z,94891.42
2019-03-17T18:07:18.030Z,94890.50
2019-03-17T18:09:44.054Z,94897.08
2019-03-17T18:12:20.467Z,94892.05
2019-03-17T18:14:36.141Z,94896.95
2019-03-17T18:17:02.290Z,94893.87
2019-03-17T18:19:28.306Z,94898.08
2019-03-17T18:21:54.328Z,94891.41
2019-03-17T18:24:20.333Z,94887.92
2019-03-17T18:26:46.331Z,94895.33
2019-03-17T18:29:12.346Z,94888.34
2019-03-17T18:31:38.360Z,94894.42
2019-03-17T18:34:04.467Z,94884.97
2019-03-17T18:36:30.624Z,94891.22
2019-03-17T18:38:56.630Z,94886.52
2019-03-17T18:41:22.621Z,94880.97
2019-03-17T18:43:48.640Z,94884.38
2019-03-17T18:46:14.636Z,94884.77
2019-03-17T18:48:40.631Z,94879.23
2019-03-17T18:51:06.645Z,94883.05
2019-03-17T18:53:32.640Z,94879.98
2019-03-17T18:55:58.690Z,94881.31
2019-03-17T18:58:24.686Z,94880.98
2019-03-17T19:00:50.712Z,94883.58
2019-03-17T19:03:16.710Z,94877.83
2019-03-17T19:05:42.708Z,94885.41
2019-03-17T19:08:08.713Z,94885.03
2019-03-17T19:10:34.711Z,94887.28
2019-03-17T19:13:03.662Z,94885.53
2019-03-17T19:15:26.711Z,94882.03
2019-03-17T19:17:52.715Z,94880.28
2019-03-17T19:20:18.711Z,94886.57
2019-03-17T19:22:44.710Z,94889.83
2019-03-17T19:25:12.043Z,94885.03
2019-03-17T19:27:39.533Z,94879.70
2019-03-17T19:30:05.527Z,94889.54
2019-03-17T19:32:33.571Z,94892.12
2019-03-17T19:34:59.603Z,94888.70
2019-03-17T19:37:25.608Z,94893.25
2019-03-17T19:39:53.019Z,94887.09
2019-03-17T19:42:19.195Z,94894.16
2019-03-17T19:44:45.191Z,94893.53
2019-03-17T19:47:11.193Z,94900.83
2019-03-17T19:49:37.199Z,94897.75
2019-03-17T19:52:03.204Z,94894.58
2019-03-17T19:54:29.201Z,94901.66
2019-03-17T19:56:55.222Z,94896.41
2019-03-17T19:59:21.218Z,94898.04
2019-03-17T20:01:47.218Z,94901.66
2019-03-17T20:04:13.229Z,94894.45
2019-03-17T20:06:39.231Z,94900.41
2019-03-17T20:09:05.861Z,94895.08
2019-03-17T20:11:31.239Z,94893.66
2019-03-17T20:13:57.262Z,94898.98
2019-03-17T20:16:23.281Z,94899.79
2019-03-17T20:18:49.254Z,94898.58
2019-03-17T20:21:15.261Z,94903.08
2019-03-17T20:23:41.260Z,94901.13
2019-03-17T20:26:07.268Z,94899.38
2019-03-17T20:28:33.272Z,94901.66
2019-03-17T20:30:59.263Z,94898.16
2019-03-17T20:33:25.255Z,94898.04
2019-03-17T20:35:51.252Z,94899.91
2019-03-17T20:38:17.250Z,94898.98
2019-03-17T20:40:43.246Z,94897.24
2019-03-17T20:43:20.265Z,94896.00
2019-03-17T20:45:35.267Z,94895.91
2019-03-17T20:48:01.329Z,94891.91
2019-03-17T20:50:27.298Z,94896.33
2019-03-17T20:52:53.299Z,94893.13
2019-03-17T20:55:19.299Z,94888.70
2019-03-17T20:57:45.296Z,94884.83
2019-03-17T21:00:11.300Z,94884.83
2019-03-17T21:02:37.300Z,94888.70
2019-03-17T21:05:03.318Z,94886.58
2019-03-17T21:07:29.319Z,94882.58
2019-03-17T21:09:55.491Z,94882.16
2019-03-17T21:12:21.500Z,94883.50
2019-03-17T21:14:47.490Z,94880.00
2019-03-17T21:17:14.215Z,94881.45
2019-03-17T21:19:39.488Z,94878.79
2019-03-17T21:22:05.498Z,94888.92
2019-03-17T21:24:31.529Z,94874.17
2019-03-17T21:26:57.544Z,94878.17
2019-03-17T21:29:23.548Z,94879.59
2019-03-17T21:31:49.539Z,94880.00
2019-03-17T21:34:15.551Z,94887.59
2019-03-17T21:36:41.547Z,94885.34
2019-03-17T21:39:07.558Z,94885.88
2019-03-17T21:41:33.552Z,94887.59
2019-03-17T21:44:00.022Z,94888.83
2019-03-17T21:46:25.576Z,94890.79
2019-03-17T21:48:51.575Z,94890.67
2019-03-17T21:51:17.569Z,94884.92
2019-03-17T21:53:43.566Z,94886.79
2019-03-17T21:56:09.564Z,94891.41
2019-03-17T21:58:35.559Z,94897.87
2019-03-17T22:01:01.559Z,94899.41
2019-03-17T22:03:27.555Z,94895.92
2019-03-17T22:05:53.593Z,94898.08
2019-03-17T22:08:19.566Z,94892.01
2019-03-17T22:10:45.558Z,94897.88
2019-03-17T22:13:11.558Z,94902.29
2019-03-17T22:15:37.555Z,94906.38
2019-03-17T22:18:03.553Z,94901.25
2019-03-17T22:20:29.561Z,94903.83
2019-03-17T22:22:55.562Z,94908.75
2019-03-17T22:25:21.560Z,94899.51
2019-03-17T22:27:47.555Z,94892.05
2019-03-17T22:30:13.556Z,94893.88
2019-03-17T22:32:39.553Z,94895.72
2019-03-17T22:35:05.561Z,94896.22
2019-03-17T22:37:31.555Z,94896.64
2019-03-17T22:39:57.570Z,94901.55
2019-03-17T22:42:23.568Z,94905.17
2019-03-17T22:44:49.565Z,94895.52
2019-03-17T22:47:15.562Z,94904.43
2019-03-17T22:49:41.677Z,94903.09
2019-03-17T22:52:07.571Z,94901.88
2019-03-17T22:54:33.575Z,94896.55
2019-03-17T22:56:59.578Z,94905.05
2019-03-17T22:59:25.570Z,94902.39
2019-03-17T23:01:51.602Z,94894.52
2019-03-17T23:04:17.600Z,94902.51
2019-03-17T23:06:43.618Z,94896.77
2019-03-17T23:09:09.618Z,94898.52
2019-03-17T23:11:35.611Z,94901.27
2019-03-17T23:14:01.617Z,94907.52
2019-03-17T23:16:27.607Z,94914.18
2019-03-17T23:18:53.756Z,94915.63
2019-03-17T23:21:19.746Z,94920.46
2019-03-17T23:23:45.772Z,94921.47
2019-03-17T23:26:11.769Z,94919.63
2019-03-17T23:28:37.772Z,94922.80
2019-03-17T23:31:03.771Z,94924.14
2019-03-17T23:33:29.766Z,94921.59
2019-03-17T23:35:55.812Z,94916.26
2019-03-17T23:38:21.807Z,94922.51
2019-03-17T23:40:47.814Z,94923.42
2019-03-17T23:43:13.807Z,94919.13
2019-03-17T23:45:39.828Z,94921.67
2019-03-17T23:48:05.824Z,94925.59
2019-03-17T23:50:31.823Z,94926.21
2019-03-17T23:52:57.902Z,94927.13
2019-03-17T23:55:23.818Z,94918.72
2019-03-17T23:57:49.819Z,94922.21
